createdAt,value
2023-02-28T00:00:47.505Z,-0.01
2023-02-28T00:05:49.272Z,0.01
2023-02-28T00:10:51.951Z,0.00
2023-02-28T00:16:01.947Z,-0.05
2023-02-28T00:21:04.701Z,-0.13
2023-02-28T00:26:06.429Z,-0.23
2023-02-28T00:31:08.342Z,-0.35
2023-02-28T00:36:13.001Z,-0.46
2023-02-28T00:41:15.652Z,-0.56
2023-02-28T00:46:18.473Z,-0.62
2023-02-28T00:51:21.846Z,-0.67
2023-02-28T00:56:23.598Z,-0.71
2023-02-28T01:01:25.246Z,-0.74
2023-02-28T01:06:27.119Z,-0.76
2023-02-28T01:11:28.959Z,-0.76
2023-02-28T01:16:31.157Z,-0.71
2023-02-28T01:21:33.032Z,-0.62
2023-02-28T01:26:34.856Z,-0.52
2023-02-28T01:31:37.333Z,-0.42
2023-02-28T01:36:39.212Z,-0.35
2023-02-28T01:41:41.562Z,-0.30
2023-02-28T01:46:43.754Z,-0.26
2023-02-28T01:51:52.057Z,-0.23
2023-02-28T01:56:59.950Z,-0.21
2023-02-28T02:02:03.262Z,-0.14
2023-02-28T02:07:05.328Z,-0.17
2023-02-28T02:12:32.891Z,-0.19
2023-02-28T02:17:45.536Z,-0.21
2023-02-28T02:23:18.924Z,-0.25
2023-02-28T02:29:03.143Z,-0.35
2023-02-28T02:34:27.487Z,-0.48
2023-02-28T02:39:45.624Z,-0.61
2023-02-28T02:44:55.359Z,-0.78
2023-02-28T02:50:05.683Z,-0.87
2023-02-28T02:55:12.076Z,-0.96
2023-02-28T03:00:17.788Z,-1.07
2023-02-28T03:05:27.792Z,-1.20
2023-02-28T03:10:40.635Z,-1.31
2023-02-28T03:16:08.221Z,-1.40
2023-02-28T03:21:25.318Z,-1.50
2023-02-28T03:26:28.768Z,-1.59
2023-02-28T03:31:45.387Z,-1.70
2023-02-28T03:36:52.400Z,-1.81
2023-02-28T03:42:02.023Z,-1.89
2023-02-28T03:47:11.898Z,-1.95
2023-02-28T03:52:13.649Z,-1.98
2023-02-28T03:57:30.092Z,-2.00
2023-02-28T04:02:31.975Z,-2.03
2023-02-28T04:07:34.288Z,-2.09
2023-02-28T04:12:36.138Z,-2.14
2023-02-28T04:17:38.307Z,-2.17
2023-02-28T04:22:40.148Z,-2.19
2023-02-28T04:27:41.910Z,-2.21
2023-02-28T04:32:43.633Z,-2.26
2023-02-28T04:37:45.464Z,-2.30
2023-02-28T04:42:47.236Z,-2.34
2023-02-28T04:47:49.005Z,-2.35
2023-02-28T04:52:50.725Z,-2.37
2023-02-28T04:57:52.593Z,-2.42
2023-02-28T05:06:32.191Z,-2.46
2023-02-28T05:11:39.676Z,-2.54
2023-02-28T05:16:41.427Z,-2.58
2023-02-28T05:21:52.289Z,-2.62
2023-02-28T05:26:55.355Z,-2.67
2023-02-28T05:31:57.184Z,-2.71
2023-02-28T05:36:59.092Z,-2.73
2023-02-28T05:42:00.806Z,-2.73
2023-02-28T05:47:02.516Z,-2.71
2023-02-28T05:52:04.390Z,-2.68
2023-02-28T05:57:12.613Z,-2.63
2023-02-28T06:02:18.959Z,-2.58
2023-02-28T06:07:20.727Z,-2.50
2023-02-28T06:12:22.316Z,-2.44
2023-02-28T06:17:24.056Z,-2.38
2023-02-28T06:22:25.763Z,-2.31
2023-02-28T06:27:27.683Z,-2.18
2023-02-28T06:32:29.397Z,-2.04
2023-02-28T06:37:34.200Z,-1.90
2023-02-28T06:42:35.896Z,-1.73
2023-02-28T06:47:38.621Z,-1.54
2023-02-28T06:52:40.484Z,-1.41
2023-02-28T06:57:42.193Z,-1.29
2023-02-28T07:02:44.137Z,-1.12
2023-02-28T07:07:47.983Z,-0.93
2023-02-28T07:12:49.795Z,-0.76
2023-02-28T07:17:51.588Z,-0.62
2023-02-28T07:22:58.934Z,-0.45
2023-02-28T07:28:01.340Z,-0.30
2023-02-28T07:33:03.073Z,-0.18
2023-02-28T07:38:05.042Z,-0.05
2023-02-28T07:43:06.792Z,0.16
2023-02-28T07:48:11.117Z,0.29
2023-02-28T07:53:12.901Z,0.33
2023-02-28T07:58:14.658Z,0.53
2023-02-28T08:03:16.844Z,0.81
2023-02-28T08:08:18.536Z,1.08
2023-02-28T08:13:20.193Z,1.19
2023-02-28T08:18:23.175Z,1.23
2023-02-28T08:23:24.847Z,1.43
2023-02-28T08:28:27.580Z,1.79
2023-02-28T08:33:29.459Z,2.20
2023-02-28T08:38:31.291Z,2.58
2023-02-28T08:43:32.985Z,2.84
2023-02-28T08:48:36.081Z,2.95
2023-02-28T08:53:40.205Z,3.02
2023-02-28T08:58:42.213Z,3.17
2023-02-28T09:03:45.299Z,3.46
2023-02-28T09:08:47.413Z,3.85
2023-02-28T09:13:49.108Z,4.25
2023-02-28T09:18:51.162Z,4.68
2023-02-28T09:23:53.209Z,4.94
2023-02-28T09:28:56.016Z,5.12
2023-02-28T09:33:58.887Z,5.09
2023-02-28T09:39:00.562Z,4.84
2023-02-28T09:44:05.259Z,4.54
2023-02-28T09:49:20.448Z,4.30
2023-02-28T09:54:25.004Z,4.28
2023-02-28T09:59:55.854Z,4.31
2023-02-28T10:05:09.782Z,4.49
2023-02-28T10:10:22.543Z,4.67
2023-02-28T10:15:27.700Z,4.96
2023-02-28T10:20:34.853Z,5.24
2023-02-28T10:25:39.396Z,5.91
2023-02-28T10:30:46.338Z,6.47
2023-02-28T10:35:48.132Z,7.04
2023-02-28T10:40:50.498Z,7.36
2023-02-28T10:46:10.463Z,7.63
2023-02-28T10:51:17.453Z,7.97
2023-02-28T10:56:22.960Z,8.15
2023-02-28T11:01:40.955Z,8.26
2023-02-28T11:06:42.994Z,8.22
2023-02-28T11:11:47.935Z,8.13
2023-02-28T11:16:51.180Z,7.52
2023-02-28T11:22:00.132Z,6.59
2023-02-28T11:27:02.725Z,6.29
2023-02-28T11:32:24.187Z,6.17
2023-02-28T11:37:28.289Z,6.01
2023-02-28T11:42:40.253Z,6.33
2023-02-28T11:47:49.219Z,6.55
2023-02-28T11:52:57.162Z,6.88
2023-02-28T11:58:17.814Z,6.92
2023-02-28T12:03:29.287Z,6.74
2023-02-28T12:08:49.400Z,6.85
2023-02-28T12:14:21.812Z,6.81
2023-02-28T12:19:34.705Z,6.50
2023-02-28T12:24:58.025Z,6.28
2023-02-28T12:30:26.941Z,6.11
2023-02-28T12:35:42.048Z,5.99
2023-02-28T12:40:49.903Z,6.15
2023-02-28T12:45:57.994Z,6.12
2023-02-28T12:51:01.770Z,5.91
2023-02-28T12:56:37.491Z,5.83
2023-02-28T13:01:48.801Z,6.22
2023-02-28T13:07:09.788Z,6.71
2023-02-28T13:12:16.602Z,7.25
2023-02-28T13:17:24.794Z,7.52
2023-02-28T13:22:26.535Z,7.83
2023-02-28T13:27:40.436Z,7.95
2023-02-28T13:32:42.273Z,7.76
2023-02-28T13:37:45.797Z,7.46
2023-02-28T13:42:50.655Z,7.34
2023-02-28T13:48:03.052Z,7.35
2023-02-28T13:53:18.324Z,7.30
2023-02-28T13:58:42.099Z,6.96
2023-02-28T14:03:59.013Z,7.29
2023-02-28T14:09:09.293Z,7.51
2023-02-28T14:14:36.939Z,7.48
2023-02-28T14:19:39.862Z,7.37
2023-02-28T14:25:19.384Z,7.62
2023-02-28T14:30:39.255Z,7.60
2023-02-28T14:35:54.884Z,7.64
2023-02-28T14:41:01.636Z,7.28
2023-02-28T14:46:07.386Z,6.99
2023-02-28T14:51:10.074Z,6.82
2023-02-28T14:56:37.853Z,6.94
2023-02-28T15:01:39.737Z,6.65
2023-02-28T15:06:42.605Z,6.54
2023-02-28T15:11:49.712Z,6.56
2023-02-28T15:17:01.141Z,6.29
2023-02-28T15:22:17.906Z,6.22
2023-02-28T15:27:31.024Z,6.09
2023-02-28T15:32:38.245Z,6.01
2023-02-28T15:37:47.414Z,5.83
2023-02-28T15:43:08.592Z,5.53
2023-02-28T15:48:24.158Z,5.33
2023-02-28T15:53:41.180Z,5.13
2023-02-28T15:58:43.601Z,4.93
2023-02-28T16:03:51.146Z,4.71
2023-02-28T16:08:54.109Z,4.43
2023-02-28T16:13:56.096Z,4.12
2023-02-28T16:18:58.026Z,3.80
2023-02-28T16:23:59.919Z,3.41
2023-02-28T16:29:03.112Z,3.06
2023-02-28T16:34:06.061Z,2.75
2023-02-28T16:39:07.779Z,2.49
2023-02-28T16:44:12.813Z,2.24
2023-02-28T16:49:15.141Z,1.98
2023-02-28T16:54:17.041Z,1.79
2023-02-28T16:59:20.862Z,1.65
2023-02-28T17:04:22.554Z,1.53
2023-02-28T17:09:30.801Z,1.43
2023-02-28T17:14:39.644Z,1.31
2023-02-28T17:19:44.041Z,1.21
2023-02-28T17:24:46.467Z,1.13
2023-02-28T17:29:49.039Z,1.04
2023-02-28T17:34:50.858Z,0.89
2023-02-28T17:39:52.636Z,0.75
2023-02-28T17:44:54.329Z,0.65
2023-02-28T17:49:55.955Z,0.55
2023-02-28T17:54:58.255Z,0.49
2023-02-28T17:59:59.958Z,0.45
2023-02-28T18:05:01.694Z,0.43
2023-02-28T18:10:04.287Z,0.42
2023-02-28T18:15:07.173Z,0.39
2023-02-28T18:20:11.516Z,0.34
2023-02-28T18:25:16.920Z,0.28
2023-02-28T18:30:19.270Z,0.21
2023-02-28T18:35:36.107Z,0.14
2023-02-28T18:40:38.544Z,0.07
2023-02-28T18:45:40.259Z,0.01
2023-02-28T18:50:42.282Z,-0.07
2023-02-28T18:55:44.577Z,-0.16
2023-02-28T19:00:47.720Z,-0.28
2023-02-28T19:05:50.941Z,-0.40
2023-02-28T19:10:52.965Z,-0.50
2023-02-28T19:16:01.575Z,-0.58
2023-02-28T19:21:03.869Z,-0.63
2023-02-28T19:26:10.456Z,-0.70
2023-02-28T19:31:17.667Z,-0.79
2023-02-28T19:36:20.648Z,-0.83
2023-02-28T19:41:22.838Z,-0.84
2023-02-28T19:46:24.616Z,-0.82
2023-02-28T19:51:28.853Z,-0.77
2023-02-28T19:56:30.987Z,-0.75
2023-02-28T20:01:33.074Z,-0.74
2023-02-28T20:06:34.988Z,-0.75
2023-02-28T20:11:37.188Z,-0.76
2023-02-28T20:16:40.766Z,-0.80
2023-02-28T20:21:44.011Z,-0.86
2023-02-28T20:26:45.738Z,-0.91
2023-02-28T20:31:47.536Z,-0.92
2023-02-28T20:36:49.785Z,-0.92
2023-02-28T20:41:51.500Z,-0.92
2023-02-28T20:46:53.169Z,-0.93
2023-02-28T20:51:54.832Z,-0.94
2023-02-28T20:56:56.742Z,-1.01
2023-02-28T21:01:58.436Z,-1.09
2023-02-28T21:07:00.197Z,-1.20
2023-02-28T21:12:01.814Z,-1.37
2023-02-28T21:17:03.714Z,-1.60
2023-02-28T21:22:05.507Z,-1.76
2023-02-28T21:27:07.337Z,-1.87
2023-02-28T21:32:09.151Z,-1.97
2023-02-28T21:37:11.151Z,-2.05
2023-02-28T21:42:13.095Z,-2.12
2023-02-28T21:47:14.892Z,-2.24
2023-02-28T21:52:21.831Z,-2.38
2023-02-28T21:57:23.668Z,-2.43
2023-02-28T22:02:25.881Z,-2.46
2023-02-28T22:07:28.167Z,-2.49
2023-02-28T22:12:30.824Z,-2.42
2023-02-28T22:17:33.537Z,-2.38
2023-02-28T22:22:35.472Z,-2.39
2023-02-28T22:27:37.292Z,-2.40
2023-02-28T22:32:41.235Z,-2.41
2023-02-28T22:37:44.026Z,-2.49
2023-02-28T22:42:46.731Z,-2.54
2023-02-28T22:47:49.438Z,-2.52
2023-02-28T22:52:52.930Z,-2.44
2023-02-28T22:57:54.650Z,-2.32
2023-02-28T23:02:56.434Z,-2.20
2023-02-28T23:07:58.302Z,-2.11
2023-02-28T23:13:00.842Z,-2.06
2023-02-28T23:18:02.733Z,-2.03
2023-02-28T23:23:04.905Z,-2.04
2023-02-28T23:28:07.386Z,-2.03
2023-02-28T23:33:14.133Z,-2.02
2023-02-28T23:38:15.904Z,-2.03
2023-02-28T23:43:17.615Z,-2.01
2023-02-28T23:48:19.571Z,-1.97
2023-02-28T23:53:21.386Z,-1.95
2023-02-28T23:58:23.145Z,-1.95
